createdAt,value
2023-04-27T00:02:20.169Z,41.16
2023-04-27T00:04:48.181Z,41.26
2023-04-27T00:07:16.058Z,41.04
2023-04-27T00:09:43.530Z,41.23
2023-04-27T00:12:10.830Z,41.37
2023-04-27T00:14:38.316Z,41.29
2023-04-27T00:17:05.559Z,41.17
2023-04-27T00:19:33.044Z,41.24
2023-04-27T00:22:00.583Z,41.34
2023-04-27T00:24:28.207Z,41.23
2023-04-27T00:26:55.581Z,41.24
2023-04-27T00:29:23.143Z,41.15
2023-04-27T00:31:50.619Z,41.22
2023-04-27T00:34:18.160Z,41.29
2023-04-27T00:36:45.598Z,41.30
2023-04-27T00:39:13.225Z,41.38
2023-04-27T00:41:40.657Z,41.43
2023-04-27T00:44:08.472Z,41.26
2023-04-27T00:46:36.210Z,41.24
2023-04-27T00:49:04.697Z,41.28
2023-04-27T00:51:32.219Z,41.39
2023-04-27T00:54:01.670Z,41.31
2023-04-27T00:56:29.461Z,41.41
2023-04-27T00:58:57.038Z,41.42
2023-04-27T01:01:24.371Z,41.33
2023-04-27T01:03:52.116Z,41.53
2023-04-27T01:06:19.768Z,41.52
2023-04-27T01:08:47.385Z,41.51
2023-04-27T01:11:14.747Z,41.35
2023-04-27T01:13:42.372Z,41.55
2023-04-27T01:16:09.639Z,41.38
2023-04-27T01:18:37.878Z,41.51
2023-04-27T01:21:05.567Z,41.56
2023-04-27T01:23:33.243Z,41.39
2023-04-27T01:26:00.651Z,41.49
2023-04-27T01:28:28.291Z,41.52
2023-04-27T01:30:55.950Z,41.55
2023-04-27T01:33:23.738Z,41.53
2023-04-27T01:35:51.540Z,41.62
2023-04-27T01:38:19.272Z,41.60
2023-04-27T01:40:46.461Z,41.59
2023-04-27T01:43:16.537Z,41.42
2023-04-27T01:45:43.755Z,41.40
2023-04-27T01:48:11.619Z,41.50
2023-04-27T01:50:38.888Z,41.67
2023-04-27T01:53:06.348Z,41.52
2023-04-27T01:55:33.579Z,41.34
2023-04-27T01:58:01.209Z,41.52
2023-04-27T02:00:28.446Z,41.74
2023-04-27T02:02:57.388Z,41.65
2023-04-27T02:05:25.420Z,41.66
2023-04-27T02:07:53.078Z,41.67
2023-04-27T02:10:22.210Z,41.64
2023-04-27T02:12:49.775Z,41.68
2023-04-27T02:15:17.067Z,41.67
2023-04-27T02:17:45.444Z,41.62
2023-04-27T02:20:12.740Z,41.61
2023-04-27T02:22:44.379Z,41.64
2023-04-27T02:25:12.415Z,41.68
2023-04-27T02:27:41.429Z,41.63
2023-04-27T02:30:11.575Z,41.56
2023-04-27T02:32:39.987Z,41.67
2023-04-27T02:35:08.488Z,41.69
2023-04-27T02:37:36.706Z,41.78
2023-04-27T02:40:06.964Z,41.69
2023-04-27T02:42:34.586Z,41.67
2023-04-27T02:45:01.872Z,41.63
2023-04-27T02:47:29.419Z,41.64
2023-04-27T02:49:56.667Z,41.66
2023-04-27T02:52:24.204Z,41.80
2023-04-27T02:54:51.419Z,41.77
2023-04-27T02:57:19.112Z,41.79
2023-04-27T02:59:46.479Z,41.68
2023-04-27T03:02:14.067Z,41.79
2023-04-27T03:04:41.995Z,41.61
2023-04-27T03:07:09.647Z,41.83
2023-04-27T03:09:37.244Z,41.68
2023-04-27T03:12:05.129Z,41.68
2023-04-27T03:14:32.442Z,41.81
2023-04-27T03:17:00.554Z,41.60
2023-04-27T03:19:27.860Z,41.79
2023-04-27T03:21:55.643Z,41.74
2023-04-27T03:24:25.555Z,41.87
2023-04-27T03:26:53.085Z,41.95
2023-04-27T03:29:20.544Z,41.73
2023-04-27T03:31:48.175Z,41.89
2023-04-27T03:34:15.892Z,41.86
2023-04-27T03:36:43.524Z,41.94
2023-04-27T03:39:10.859Z,41.83
2023-04-27T03:41:38.379Z,41.85
2023-04-27T03:44:06.130Z,41.84
2023-04-27T03:46:34.172Z,41.94
2023-04-27T03:49:01.586Z,41.86
2023-04-27T03:51:32.355Z,41.78
2023-04-27T03:54:00.229Z,41.79
2023-04-27T03:56:27.728Z,41.88
2023-04-27T03:58:55.311Z,41.78
2023-04-27T04:01:23.004Z,41.69
2023-04-27T04:03:51.717Z,41.77
2023-04-27T04:06:19.544Z,41.85
2023-04-27T04:08:46.853Z,41.73
2023-04-27T04:11:14.331Z,41.76
2023-04-27T04:13:42.151Z,41.89
2023-04-27T04:16:10.091Z,41.78
2023-04-27T04:18:38.021Z,41.81
2023-04-27T04:21:05.857Z,41.87
2023-04-27T04:23:33.103Z,41.75
2023-04-27T04:26:02.109Z,41.90
2023-04-27T04:28:29.662Z,41.73
2023-04-27T04:30:57.262Z,41.84
2023-04-27T04:33:26.171Z,41.79
2023-04-27T04:35:54.388Z,41.87
2023-04-27T04:38:22.231Z,41.88
2023-04-27T04:40:50.563Z,41.85
2023-04-27T04:43:17.961Z,41.91
2023-04-27T04:45:46.744Z,41.40
2023-04-27T04:48:18.022Z,41.66
2023-04-27T04:50:45.783Z,41.56
2023-04-27T04:53:13.056Z,41.51
2023-04-27T04:55:41.027Z,41.17
2023-04-27T04:58:08.716Z,41.50
2023-04-27T05:00:36.812Z,41.24
2023-04-27T05:03:04.277Z,41.36
2023-04-27T05:05:32.025Z,41.44
2023-04-27T05:07:59.319Z,41.31
2023-04-27T05:10:26.865Z,41.31
2023-04-27T05:12:54.175Z,41.36
2023-04-27T05:15:21.772Z,41.50
2023-04-27T05:17:49.039Z,41.35
2023-04-27T05:20:16.646Z,41.39
2023-04-27T05:22:44.002Z,41.39
2023-04-27T05:25:11.630Z,41.47
2023-04-27T05:27:39.021Z,41.45
2023-04-27T05:30:07.870Z,41.29
2023-04-27T05:32:36.804Z,41.40
2023-04-27T05:35:05.384Z,41.17
2023-04-27T05:37:32.989Z,41.25
2023-04-27T05:40:00.486Z,41.27
2023-04-27T05:42:27.884Z,41.27
2023-04-27T05:44:55.656Z,41.00
2023-04-27T05:47:23.419Z,40.99
2023-04-27T05:49:55.195Z,41.00
2023-04-27T05:52:23.732Z,40.81
2023-04-27T05:54:51.432Z,40.85
2023-04-27T05:57:18.666Z,40.70
2023-04-27T05:59:46.284Z,40.78
2023-04-27T06:02:13.719Z,40.61
2023-04-27T06:04:41.350Z,40.58
2023-04-27T06:07:13.597Z,40.61
2023-04-27T06:09:41.612Z,40.50
2023-04-27T06:12:09.382Z,40.53
2023-04-27T06:14:38.008Z,40.53
2023-04-27T06:17:05.753Z,40.46
2023-04-27T06:19:33.242Z,40.42
2023-04-27T06:22:00.533Z,40.39
2023-04-27T06:24:28.645Z,40.49
2023-04-27T06:26:56.241Z,40.49
2023-04-27T06:29:23.790Z,40.34
2023-04-27T06:31:51.288Z,40.26
2023-04-27T06:34:19.204Z,40.34
2023-04-27T06:36:46.890Z,40.34
2023-04-27T06:39:14.467Z,40.29
2023-04-27T06:41:42.005Z,40.21
2023-04-27T06:44:09.682Z,40.25
2023-04-27T06:46:36.947Z,40.11
2023-04-27T06:49:04.680Z,39.86
2023-04-27T06:51:31.934Z,39.98
2023-04-27T06:53:59.398Z,39.87
2023-04-27T06:56:26.685Z,39.95
2023-04-27T06:58:54.294Z,39.85
2023-04-27T07:01:21.617Z,39.90
2023-04-27T07:03:49.337Z,39.93
2023-04-27T07:06:16.777Z,39.60
2023-04-27T07:08:44.428Z,39.88
2023-04-27T07:11:12.475Z,39.74
2023-04-27T07:13:40.406Z,39.75
2023-04-27T07:16:07.987Z,39.75
2023-04-27T07:18:35.624Z,39.83
2023-04-27T07:21:02.956Z,39.88
2023-04-27T07:23:30.440Z,39.70
2023-04-27T07:25:58.075Z,39.82
2023-04-27T07:28:25.592Z,39.84
2023-04-27T07:30:52.897Z,39.73
2023-04-27T07:33:20.514Z,39.88
2023-04-27T07:35:50.010Z,39.83
2023-04-27T07:38:17.547Z,39.77
2023-04-27T07:40:45.345Z,39.60
2023-04-27T07:43:13.168Z,39.77
2023-04-27T07:45:41.441Z,39.59
2023-04-27T07:48:08.995Z,39.56
2023-04-27T07:50:36.284Z,39.57
2023-04-27T07:53:03.776Z,39.48
2023-04-27T07:55:31.095Z,39.56
2023-04-27T07:57:58.653Z,39.18
2023-04-27T08:00:26.745Z,39.56
2023-04-27T08:02:54.587Z,39.60
2023-04-27T08:05:22.784Z,39.34
2023-04-27T08:07:53.407Z,39.51
2023-04-27T08:10:22.297Z,39.57
2023-04-27T08:12:50.096Z,39.30
2023-04-27T08:15:17.539Z,39.35
2023-04-27T08:17:45.062Z,39.46
2023-04-27T08:20:12.646Z,39.37
2023-04-27T08:22:41.349Z,39.45
2023-04-27T08:25:09.410Z,39.41
2023-04-27T08:27:40.603Z,39.39
2023-04-27T08:30:08.867Z,39.34
2023-04-27T08:32:36.514Z,39.39
2023-04-27T08:35:04.458Z,39.34
2023-04-27T08:37:32.351Z,39.32
2023-04-27T08:39:59.820Z,39.32
2023-04-27T08:42:27.958Z,39.09
2023-04-27T08:44:55.181Z,38.99
2023-04-27T08:47:31.433Z,39.05
2023-04-27T08:50:09.853Z,38.97
2023-04-27T08:52:37.548Z,38.97
2023-04-27T08:55:05.378Z,38.93
2023-04-27T08:57:32.928Z,39.01
2023-04-27T09:00:01.206Z,38.92
2023-04-27T09:02:29.664Z,39.01
2023-04-27T09:04:57.912Z,39.09
2023-04-27T09:07:28.422Z,38.97
2023-04-27T09:10:03.683Z,38.86
2023-04-27T09:12:31.262Z,38.90
2023-04-27T09:15:08.413Z,39.31
2023-04-27T09:17:38.761Z,38.89
2023-04-27T09:20:13.334Z,38.88
2023-04-27T09:22:47.701Z,38.92
2023-04-27T09:25:28.631Z,38.86
2023-04-27T09:27:58.329Z,38.90
2023-04-27T09:30:26.798Z,38.82
2023-04-27T09:33:01.615Z,38.87
2023-04-27T09:35:31.575Z,38.83
2023-04-27T09:38:00.824Z,38.81
2023-04-27T09:40:30.947Z,38.80
2023-04-27T09:43:03.078Z,38.85
2023-04-27T09:45:31.225Z,38.93
2023-04-27T09:47:58.912Z,38.71
2023-04-27T09:50:26.661Z,38.70
2023-04-27T09:52:54.199Z,38.75
2023-04-27T09:55:25.747Z,38.72
2023-04-27T09:58:22.358Z,38.73
2023-04-27T10:00:55.715Z,38.85
2023-04-27T10:03:51.626Z,38.67
2023-04-27T10:06:37.428Z,38.61
2023-04-27T10:09:06.720Z,38.84
2023-04-27T10:11:42.236Z,38.56
2023-04-27T10:14:16.984Z,38.88
2023-04-27T10:16:55.664Z,38.56
2023-04-27T10:19:24.428Z,38.54
2023-04-27T10:22:02.324Z,38.54
2023-04-27T10:24:38.090Z,38.47
2023-04-27T10:27:06.850Z,38.40
2023-04-27T10:29:44.773Z,38.33
2023-04-27T10:32:23.694Z,38.45
2023-04-27T10:34:52.790Z,38.36
2023-04-27T10:37:21.989Z,38.23
2023-04-27T10:39:50.467Z,38.24
2023-04-27T10:42:28.819Z,38.38
2023-04-27T10:44:57.690Z,38.44
2023-04-27T10:47:25.125Z,38.39
2023-04-27T10:49:54.482Z,38.34
2023-04-27T10:52:21.878Z,38.30
2023-04-27T10:54:49.312Z,38.27
2023-04-27T10:57:16.642Z,38.38
2023-04-27T10:59:52.761Z,38.43
2023-04-27T11:02:29.283Z,38.36
2023-04-27T11:04:57.045Z,38.43
2023-04-27T11:07:27.695Z,38.58
2023-04-27T11:09:55.704Z,38.42
2023-04-27T11:12:24.097Z,38.34
2023-04-27T11:15:00.004Z,38.45
2023-04-27T11:17:30.896Z,38.37
2023-04-27T11:19:58.410Z,38.48
2023-04-27T11:22:25.894Z,38.58
2023-04-27T11:24:53.732Z,38.41
2023-04-27T11:27:22.453Z,38.36
2023-04-27T11:29:49.964Z,38.39
2023-04-27T11:32:21.646Z,38.38
2023-04-27T11:34:54.307Z,38.37
2023-04-27T11:37:26.889Z,38.37
2023-04-27T11:39:55.345Z,38.39
2023-04-27T11:42:25.359Z,38.28
2023-04-27T11:45:01.254Z,38.46
2023-04-27T11:47:30.744Z,38.05
2023-04-27T11:50:01.227Z,38.31
2023-04-27T11:52:32.912Z,38.23
2023-04-27T11:55:02.254Z,38.36
2023-04-27T11:57:31.282Z,38.22
2023-04-27T12:00:01.440Z,38.16
2023-04-27T12:02:31.479Z,38.05
2023-04-27T12:04:59.813Z,38.10
2023-04-27T12:07:27.538Z,38.12
2023-04-27T12:09:55.108Z,38.03
2023-04-27T12:12:22.792Z,38.01
2023-04-27T12:14:52.530Z,38.07
2023-04-27T12:17:19.977Z,38.01
2023-04-27T12:19:47.489Z,37.99
2023-04-27T12:22:14.770Z,37.90
2023-04-27T12:24:42.238Z,37.82
2023-04-27T12:27:09.651Z,38.00
2023-04-27T12:29:37.554Z,37.97
2023-04-27T12:32:05.246Z,37.96
2023-04-27T12:34:33.304Z,37.94
2023-04-27T12:37:00.997Z,38.06
2023-04-27T12:39:28.553Z,38.00
2023-04-27T12:41:56.090Z,37.81
2023-04-27T12:44:23.738Z,37.81
2023-04-27T12:46:51.141Z,37.94
2023-04-27T12:49:18.815Z,37.95
2023-04-27T12:51:47.875Z,37.91
2023-04-27T12:54:15.753Z,37.84
2023-04-27T12:56:43.399Z,37.86
2023-04-27T12:59:11.566Z,37.72
2023-04-27T13:01:38.903Z,37.83
2023-04-27T13:04:07.357Z,37.84
2023-04-27T13:06:35.506Z,37.84
2023-04-27T13:09:03.097Z,37.85
2023-04-27T13:11:30.510Z,37.72
2023-04-27T13:13:59.077Z,37.71
2023-04-27T13:16:26.489Z,37.75
2023-04-27T13:18:55.570Z,37.66
2023-04-27T13:21:23.322Z,37.86
2023-04-27T13:23:53.649Z,37.73
2023-04-27T13:26:21.100Z,37.76
2023-04-27T13:28:49.180Z,37.72
2023-04-27T13:31:16.582Z,37.94
2023-04-27T13:33:44.790Z,37.83
2023-04-27T13:36:13.237Z,37.80
2023-04-27T13:38:41.028Z,37.90
2023-04-27T13:41:08.811Z,37.79
2023-04-27T13:43:36.266Z,37.83
2023-04-27T13:46:03.757Z,37.76
2023-04-27T13:48:31.963Z,37.69
2023-04-27T13:50:59.253Z,37.75
2023-04-27T13:53:27.222Z,37.67
2023-04-27T13:55:56.141Z,37.59
2023-04-27T13:58:26.097Z,37.66
2023-04-27T14:00:54.080Z,37.58
2023-04-27T14:03:22.736Z,37.60
2023-04-27T14:05:53.686Z,37.67
2023-04-27T14:08:21.726Z,37.70
2023-04-27T14:10:49.121Z,37.66
2023-04-27T14:13:18.277Z,37.71
2023-04-27T14:15:45.932Z,37.54
2023-04-27T14:18:13.523Z,37.67
2023-04-27T14:20:42.160Z,37.71
2023-04-27T14:23:11.424Z,37.75
2023-04-27T14:25:39.174Z,37.75
2023-04-27T14:28:07.020Z,37.75
2023-04-27T14:30:35.113Z,37.76
2023-04-27T14:33:03.170Z,37.77
2023-04-27T14:35:30.765Z,37.72
2023-04-27T14:38:02.161Z,37.76
2023-04-27T14:40:32.973Z,37.76
2023-04-27T14:43:00.822Z,37.82
2023-04-27T14:45:33.833Z,37.76
2023-04-27T14:48:11.649Z,37.70
2023-04-27T14:50:39.256Z,37.75
2023-04-27T14:53:06.717Z,37.74
2023-04-27T14:55:34.010Z,37.64
2023-04-27T14:58:01.668Z,37.65
2023-04-27T15:00:29.006Z,37.65
2023-04-27T15:02:56.539Z,37.62
2023-04-27T15:05:23.845Z,37.76
2023-04-27T15:07:51.360Z,37.61
2023-04-27T15:10:18.753Z,37.58
2023-04-27T15:12:46.609Z,37.52
2023-04-27T15:15:14.407Z,37.55
2023-04-27T15:17:42.440Z,37.58
2023-04-27T15:20:10.804Z,37.47
2023-04-27T15:22:38.308Z,37.58
2023-04-27T15:25:05.944Z,37.23
2023-04-27T15:27:33.455Z,37.39
2023-04-27T15:30:03.556Z,37.25
2023-04-27T15:32:31.404Z,37.32
2023-04-27T15:34:58.980Z,37.30
2023-04-27T15:37:28.123Z,37.22
2023-04-27T15:39:56.008Z,37.38
2023-04-27T15:42:24.410Z,37.36
2023-04-27T15:44:52.148Z,37.40
2023-04-27T15:47:19.698Z,37.54
2023-04-27T15:49:57.085Z,37.69
2023-04-27T15:52:27.003Z,37.55
2023-04-27T15:54:55.089Z,37.71
2023-04-27T15:57:22.737Z,37.85
2023-04-27T15:59:50.031Z,37.83
2023-04-27T16:02:18.661Z,37.94
2023-04-27T16:04:46.096Z,37.96
2023-04-27T16:07:13.630Z,38.04
2023-04-27T16:09:41.026Z,38.12
2023-04-27T16:12:09.745Z,38.15
2023-04-27T16:14:37.000Z,38.19
2023-04-27T16:17:04.506Z,38.44
2023-04-27T16:19:31.741Z,38.41
2023-04-27T16:22:01.245Z,38.47
2023-04-27T16:24:31.055Z,38.56
2023-04-27T16:26:58.677Z,38.63
2023-04-27T16:29:26.032Z,38.70
2023-04-27T16:31:53.638Z,38.69
2023-04-27T16:34:21.011Z,38.75
2023-04-27T16:36:49.907Z,38.93
2023-04-27T16:39:19.164Z,38.96
2023-04-27T16:41:47.412Z,38.94
2023-04-27T16:44:14.995Z,39.11
2023-04-27T16:46:42.598Z,39.15
2023-04-27T16:49:10.482Z,39.26
2023-04-27T16:51:38.055Z,39.23
2023-04-27T16:54:05.344Z,39.33
2023-04-27T16:56:35.389Z,39.46
2023-04-27T16:59:04.930Z,39.54
2023-04-27T17:01:32.542Z,39.57
2023-04-27T17:04:01.283Z,39.80
2023-04-27T17:06:29.972Z,39.54
2023-04-27T17:08:57.898Z,39.59
2023-04-27T17:11:25.820Z,39.64
2023-04-27T17:13:53.117Z,39.62
2023-04-27T17:16:21.699Z,39.71
2023-04-27T17:18:49.593Z,39.73
2023-04-27T17:21:17.398Z,39.86
2023-04-27T17:23:46.598Z,39.84
2023-04-27T17:26:15.984Z,39.89
2023-04-27T17:28:43.274Z,39.92
2023-04-27T17:31:11.072Z,39.92
2023-04-27T17:33:42.559Z,40.00
2023-04-27T17:36:10.647Z,39.94
2023-04-27T17:38:37.893Z,39.90
2023-04-27T17:41:05.453Z,40.01
2023-04-27T17:43:32.933Z,40.10
2023-04-27T17:46:00.650Z,40.03
2023-04-27T17:48:28.071Z,40.06
2023-04-27T17:50:55.689Z,40.07
2023-04-27T17:53:22.948Z,40.03
2023-04-27T17:55:51.873Z,40.14
2023-04-27T17:58:19.170Z,39.94
2023-04-27T18:00:46.722Z,40.13
2023-04-27T18:03:14.402Z,40.07
2023-04-27T18:05:42.047Z,39.95
2023-04-27T18:08:09.556Z,39.96
2023-04-27T18:10:37.118Z,40.09
2023-04-27T18:13:05.082Z,40.05
2023-04-27T18:15:32.657Z,39.97
2023-04-27T18:18:00.239Z,40.20
2023-04-27T18:20:28.018Z,40.09
2023-04-27T18:22:55.565Z,40.04
2023-04-27T18:25:23.085Z,39.86
2023-04-27T18:27:55.116Z,40.06
2023-04-27T18:30:22.979Z,40.05
2023-04-27T18:32:50.413Z,39.80
2023-04-27T18:35:17.970Z,39.97
2023-04-27T18:37:48.216Z,39.79
2023-04-27T18:40:21.049Z,40.12
2023-04-27T18:42:48.414Z,40.18
2023-04-27T18:45:16.115Z,40.13
2023-04-27T18:47:43.444Z,39.95
2023-04-27T18:50:13.104Z,40.06
2023-04-27T18:52:40.486Z,40.19
2023-04-27T18:55:09.318Z,40.12
2023-04-27T18:57:36.841Z,40.31
2023-04-27T19:00:05.769Z,40.18
2023-04-27T19:02:33.387Z,40.31
2023-04-27T19:05:14.341Z,40.23
2023-04-27T19:07:41.709Z,40.21
2023-04-27T19:10:09.795Z,40.22
2023-04-27T19:12:37.567Z,40.21
2023-04-27T19:15:05.408Z,40.20
2023-04-27T19:17:33.032Z,40.17
2023-04-27T19:20:00.939Z,40.10
2023-04-27T19:22:33.973Z,40.00
2023-04-27T19:25:01.540Z,40.07
2023-04-27T19:27:29.098Z,39.90
2023-04-27T19:29:58.507Z,40.07
2023-04-27T19:32:27.359Z,39.93
2023-04-27T19:34:56.589Z,39.76
2023-04-27T19:37:24.758Z,39.92
2023-04-27T19:39:52.284Z,39.96
2023-04-27T19:42:19.581Z,39.99
2023-04-27T19:44:47.295Z,39.92
2023-04-27T19:47:14.549Z,39.93
2023-04-27T19:49:42.103Z,39.89
2023-04-27T19:52:09.538Z,40.10
2023-04-27T19:54:38.243Z,40.01
2023-04-27T19:57:05.763Z,40.14
2023-04-27T19:59:33.268Z,40.41
2023-04-27T20:02:00.605Z,40.48
2023-04-27T20:04:28.896Z,40.70
2023-04-27T20:06:56.720Z,40.78
2023-04-27T20:09:24.173Z,40.93
2023-04-27T20:11:51.475Z,40.95
2023-04-27T20:14:19.115Z,41.08
2023-04-27T20:16:46.507Z,41.23
2023-04-27T20:19:17.704Z,41.17
2023-04-27T20:21:45.444Z,41.31
2023-04-27T20:24:13.096Z,41.40
2023-04-27T20:26:40.496Z,41.44
2023-04-27T20:29:08.308Z,41.48
2023-04-27T20:31:35.687Z,41.58
2023-04-27T20:34:03.243Z,41.46
2023-04-27T20:36:31.926Z,41.71
2023-04-27T20:39:05.002Z,41.58
2023-04-27T20:41:35.315Z,41.62
2023-04-27T20:44:03.314Z,41.71
2023-04-27T20:46:31.173Z,41.65
2023-04-27T20:48:58.698Z,41.90
2023-04-27T20:51:26.267Z,41.69
2023-04-27T20:53:53.868Z,41.84
2023-04-27T20:56:21.120Z,41.85
2023-04-27T20:58:48.683Z,41.86
2023-04-27T21:01:15.933Z,41.81
2023-04-27T21:03:43.752Z,41.84
2023-04-27T21:06:11.239Z,41.88
2023-04-27T21:08:38.800Z,42.01
2023-04-27T21:11:06.707Z,41.87
2023-04-27T21:13:34.276Z,41.95
2023-04-27T21:16:01.974Z,41.98
2023-04-27T21:18:30.720Z,41.90
2023-04-27T21:20:58.337Z,41.90
2023-04-27T21:23:26.178Z,42.08
2023-04-27T21:25:53.444Z,42.19
2023-04-27T21:28:21.520Z,42.11
2023-04-27T21:30:49.214Z,42.09
2023-04-27T21:33:16.836Z,42.09
2023-04-27T21:35:44.111Z,41.96
2023-04-27T21:38:11.634Z,41.99
2023-04-27T21:40:38.885Z,42.17
2023-04-27T21:43:07.581Z,42.09
2023-04-27T21:45:36.021Z,42.09
2023-04-27T21:48:03.714Z,42.11
2023-04-27T21:50:31.156Z,42.11
2023-04-27T21:52:58.761Z,42.10
2023-04-27T21:55:26.076Z,42.11
2023-04-27T21:57:53.722Z,42.33
2023-04-27T22:00:21.034Z,42.33
2023-04-27T22:02:49.589Z,42.14
2023-04-27T22:05:20.859Z,42.26
2023-04-27T22:07:48.381Z,42.07
2023-04-27T22:10:16.125Z,42.18
2023-04-27T22:12:43.670Z,42.22
2023-04-27T22:15:11.324Z,42.18
2023-04-27T22:17:39.701Z,42.38
2023-04-27T22:20:14.438Z,42.28
2023-04-27T22:22:42.215Z,42.25
2023-04-27T22:25:11.600Z,42.51
2023-04-27T22:27:44.874Z,42.31
2023-04-27T22:30:13.703Z,42.33
2023-04-27T22:32:41.736Z,42.32
2023-04-27T22:35:24.941Z,42.30
2023-04-27T22:37:58.946Z,42.30
2023-04-27T22:40:26.469Z,42.28
2023-04-27T22:42:55.420Z,42.29
2023-04-27T22:45:23.698Z,42.17
2023-04-27T22:47:51.255Z,42.38
2023-04-27T22:50:18.641Z,42.46
2023-04-27T22:52:46.331Z,42.48
2023-04-27T22:55:13.628Z,42.41
2023-04-27T22:57:41.816Z,42.34
2023-04-27T23:00:11.277Z,42.47
2023-04-27T23:02:40.522Z,42.48
2023-04-27T23:05:09.106Z,42.33
2023-04-27T23:07:37.126Z,42.34
2023-04-27T23:10:05.878Z,42.39
2023-04-27T23:12:33.551Z,42.35
2023-04-27T23:15:00.981Z,42.43
2023-04-27T23:17:31.627Z,42.37
2023-04-27T23:20:00.577Z,42.38
2023-04-27T23:22:28.301Z,42.44
2023-04-27T23:24:56.230Z,42.48
2023-04-27T23:27:24.800Z,42.46
2023-04-27T23:29:52.561Z,42.45
2023-04-27T23:32:20.529Z,42.58
2023-04-27T23:34:48.130Z,42.49
2023-04-27T23:37:15.689Z,42.37
2023-04-27T23:39:42.923Z,42.36
2023-04-27T23:42:10.799Z,42.38
2023-04-27T23:44:38.468Z,42.38
2023-04-27T23:47:06.320Z,42.62
2023-04-27T23:49:33.571Z,42.39
2023-04-27T23:52:01.330Z,42.40
2023-04-27T23:54:34.557Z,42.48
2023-04-27T23:57:02.379Z,42.50
2023-04-27T23:59:36.034Z,42.34
